Hauptseite
METAR-TAF:

METAR-TAF

Flughäfen :

Flugplatz Shoreham

Brighton, England

Breite: 50-50N, Länge: 000-17W, Höhe: 2 m

Beobachtung

Neuester Wetterbericht von vor 8 Stunden und 54 Minuten, um 19:50 UTC
Wind 5 kt aus Süd/Südwest
Temperatur 9°C
Luftfeuchtigkeit 93%
Luftdruck 1022 hPa
Sichtweite: 4500 m
Geschlossene Wolkendecke in der Höhe von 1700 ft
trockener Dunst

METAR: EGKA 161950Z 21005KT 4500 HZ OVC017 09/08 Q1022

Zeit: 04:44 (04:44 UTC)

Prognose

Neuester Wetterbericht von vor 12 Stunden und 13 Minuten, um 16:31 UTC
Gültige Prognose vom 16 um 16 UTC bis 16 um 19 UTC
Wind 3 kt aus Süd
Sichtweite: 5000 m
Aufgelockert bewölkt in der Höhe von 800 ft
Durchbrochene Bewölkung in der Höhe von 1400 ft
feuchter Dunst
Zeitweise
vom 16 um 16 UTC bis 16 um 19 UTC
Sichtweite: 1200 m
Durchbrochene Bewölkung in der Höhe von 300 ft

TAF: EGKA 161631Z 1616/1619 19003KT 5000 BR SCT008 BKN014 TEMPO 1616/1619 1200 BKN003

Wetterbeobachtungen und Prognosen von mehr als 4000 Flughäfen (METAR und TAF Bericht).

Die verfügbaren Stationen werden durch gelbe und rote Markierungen auf der Karte dargestellt.

Führen Sie die Maus auf sie, um den Namen der Station zu sehen.

Darauf klicken, um die Beobachtung von Wetterbeobachtungen und Prognosen zu sehen.

Um die Karte zu ändern : klicken Sie auf den grünen Tasten mit einem schwarzen Kreuz Zum Vergrößern, auf den grünen Button mit einem Gedankenstrich zu verkleinern, oder auf die grünen Pfeile für benachbarte Karten.


METAR-TAF: